sensor_id;sensor_type;location;lat;lon;timestamp;temperature;humidity
7216;DHT22;3649;48.798;9.798;2023-05-08T00:01:09;18.50;99.90
7216;DHT22;3649;48.798;9.798;2023-05-08T00:03:37;18.60;99.90
7216;DHT22;3649;48.798;9.798;2023-05-08T00:06:04;18.50;99.90
7216;DHT22;3649;48.798;9.798;2023-05-08T00:08:32;18.50;99.90
7216;DHT22;3649;48.798;9.798;2023-05-08T00:10:58;18.50;99.90
7216;DHT22;3649;48.798;9.798;2023-05-08T00:13:25;18.50;99.90
7216;DHT22;3649;48.798;9.798;2023-05-08T00:15:52;18.50;99.90
7216;DHT22;3649;48.798;9.798;2023-05-08T00:18:19;18.50;99.90
7216;DHT22;3649;48.798;9.798;2023-05-08T00:20:46;18.50;99.90
7216;DHT22;3649;48.798;9.798;2023-05-08T00:23:13;18.50;99.90
7216;DHT22;3649;48.798;9.798;2023-05-08T00:25:39;18.40;99.90
7216;DHT22;3649;48.798;9.798;2023-05-08T00:28:06;18.40;99.90
7216;DHT22;3649;48.798;9.798;2023-05-08T00:30:33;18.40;99.90
7216;DHT22;3649;48.798;9.798;2023-05-08T00:33:00;18.40;99.90
7216;DHT22;3649;48.798;9.798;2023-05-08T00:35:27;18.40;99.90
7216;DHT22;3649;48.798;9.798;2023-05-08T00:37:54;18.40;99.90
7216;DHT22;3649;48.798;9.798;2023-05-08T00:40:20;18.40;99.90
7216;DHT22;3649;48.798;9.798;2023-05-08T00:42:47;18.40;99.90
7216;DHT22;3649;48.798;9.798;2023-05-08T00:45:14;18.40;99.90
7216;DHT22;3649;48.798;9.798;2023-05-08T00:47:41;18.40;99.90
7216;DHT22;3649;48.798;9.798;2023-05-08T00:50:09;18.40;99.90
7216;DHT22;3649;48.798;9.798;2023-05-08T00:52:36;18.30;99.90
7216;DHT22;3649;48.798;9.798;2023-05-08T00:55:04;18.30;99.90
7216;DHT22;3649;48.798;9.798;2023-05-08T00:57:32;18.40;99.90
7216;DHT22;3649;48.798;9.798;2023-05-08T01:00:04;18.40;99.90
7216;DHT22;3649;48.798;9.798;2023-05-08T01:02:31;18.30;99.90
7216;DHT22;3649;48.798;9.798;2023-05-08T01:04:59;18.30;99.90
7216;DHT22;3649;48.798;9.798;2023-05-08T01:07:26;18.30;99.90
7216;DHT22;3649;48.798;9.798;2023-05-08T01:09:53;18.30;99.90
7216;DHT22;3649;48.798;9.798;2023-05-08T01:15:34;18.30;99.90
7216;DHT22;3649;48.798;9.798;2023-05-08T01:18:20;18.20;99.90
7216;DHT22;3649;48.798;9.798;2023-05-08T01:34:43;18.20;99.90
7216;DHT22;3649;48.798;9.798;2023-05-08T01:37:15;18.20;99.90
7216;DHT22;3649;48.798;9.798;2023-05-08T01:39:50;18.30;99.90
7216;DHT22;3649;48.798;9.798;2023-05-08T01:42:52;18.20;99.90
7216;DHT22;3649;48.798;9.798;2023-05-08T01:45:30;18.20;99.90
7216;DHT22;3649;48.798;9.798;2023-05-08T01:48:33;18.20;99.90
7216;DHT22;3649;48.798;9.798;2023-05-08T01:51:16;18.20;99.90
7216;DHT22;3649;48.798;9.798;2023-05-08T01:53:51;18.20;99.90
7216;DHT22;3649;48.798;9.798;2023-05-08T01:56:22;18.30;99.90
7216;DHT22;3649;48.798;9.798;2023-05-08T01:58:52;18.30;99.90
7216;DHT22;3649;48.798;9.798;2023-05-08T02:01:23;18.20;99.90
7216;DHT22;3649;48.798;9.798;2023-05-08T02:03:52;18.20;99.90
7216;DHT22;3649;48.798;9.798;2023-05-08T02:06:21;18.30;99.90
7216;DHT22;3649;48.798;9.798;2023-05-08T02:08:48;18.30;99.90
7216;DHT22;3649;48.798;9.798;2023-05-08T02:11:15;18.20;99.90
7216;DHT22;3649;48.798;9.798;2023-05-08T02:13:45;18.20;99.90
7216;DHT22;3649;48.798;9.798;2023-05-08T02:16:13;18.30;99.90
7216;DHT22;3649;48.798;9.798;2023-05-08T02:18:45;18.30;99.90
7216;DHT22;3649;48.798;9.798;2023-05-08T02:21:14;18.30;99.90
7216;DHT22;3649;48.798;9.798;2023-05-08T02:23:43;18.30;99.90
7216;DHT22;3649;48.798;9.798;2023-05-08T02:26:13;18.30;99.90
7216;DHT22;3649;48.798;9.798;2023-05-08T02:28:40;18.30;99.90
7216;DHT22;3649;48.798;9.798;2023-05-08T02:31:11;18.20;99.90
7216;DHT22;3649;48.798;9.798;2023-05-08T02:33:40;18.20;99.90
7216;DHT22;3649;48.798;9.798;2023-05-08T02:36:09;18.20;99.90
7216;DHT22;3649;48.798;9.798;2023-05-08T02:38:37;18.20;99.90
7216;DHT22;3649;48.798;9.798;2023-05-08T02:41:07;18.20;99.90
7216;DHT22;3649;48.798;9.798;2023-05-08T02:43:34;18.20;99.90
7216;DHT22;3649;48.798;9.798;2023-05-08T02:46:22;18.20;99.90
7216;DHT22;3649;48.798;9.798;2023-05-08T02:48:55;18.30;99.90
7216;DHT22;3649;48.798;9.798;2023-05-08T02:51:49;18.30;99.90
7216;DHT22;3649;48.798;9.798;2023-05-08T02:59:38;18.30;99.90
7216;DHT22;3649;48.798;9.798;2023-05-08T03:02:13;18.30;99.90
7216;DHT22;3649;48.798;9.798;2023-05-08T03:04:50;18.30;99.90
7216;DHT22;3649;48.798;9.798;2023-05-08T03:07:21;18.30;99.90
7216;DHT22;3649;48.798;9.798;2023-05-08T03:09:54;20.00;99.90
7216;DHT22;3649;48.798;9.798;2023-05-08T03:12:25;18.30;99.90
7216;DHT22;3649;48.798;9.798;2023-05-08T03:15:15;18.30;99.90
7216;DHT22;3649;48.798;9.798;2023-05-08T03:17:45;18.30;99.90
7216;DHT22;3649;48.798;9.798;2023-05-08T03:20:16;18.20;99.90
7216;DHT22;3649;48.798;9.798;2023-05-08T03:22:45;18.20;99.90
7216;DHT22;3649;48.798;9.798;2023-05-08T03:25:13;18.30;99.90
7216;DHT22;3649;48.798;9.798;2023-05-08T03:27:43;18.20;99.90
7216;DHT22;3649;48.798;9.798;2023-05-08T03:30:11;18.20;99.90
7216;DHT22;3649;48.798;9.798;2023-05-08T03:32:40;18.20;99.90
7216;DHT22;3649;48.798;9.798;2023-05-08T03:35:08;18.10;99.90
7216;DHT22;3649;48.798;9.798;2023-05-08T03:37:35;18.20;99.90
7216;DHT22;3649;48.798;9.798;2023-05-08T03:40:03;18.20;99.90
7216;DHT22;3649;48.798;9.798;2023-05-08T03:42:30;18.20;99.90
7216;DHT22;3649;48.798;9.798;2023-05-08T03:44:57;18.20;99.90
7216;DHT22;3649;48.798;9.798;2023-05-08T03:47:25;18.20;99.90
7216;DHT22;3649;48.798;9.798;2023-05-08T03:49:53;18.20;99.90
7216;DHT22;3649;48.798;9.798;2023-05-08T03:52:20;18.20;99.90
7216;DHT22;3649;48.798;9.798;2023-05-08T03:54:47;18.30;99.90
7216;DHT22;3649;48.798;9.798;2023-05-08T03:57:14;18.30;99.90
7216;DHT22;3649;48.798;9.798;2023-05-08T04:05:33;18.20;99.90
7216;DHT22;3649;48.798;9.798;2023-05-08T04:08:26;18.20;99.90
7216;DHT22;3649;48.798;9.798;2023-05-08T04:11:05;18.20;99.90
7216;DHT22;3649;48.798;9.798;2023-05-08T04:13:41;18.20;99.90
7216;DHT22;3649;48.798;9.798;2023-05-08T04:16:15;18.10;99.90
7216;DHT22;3649;48.798;9.798;2023-05-08T04:18:45;18.20;99.90
7216;DHT22;3649;48.798;9.798;2023-05-08T04:21:18;18.20;99.90
7216;DHT22;3649;48.798;9.798;2023-05-08T04:23:47;18.20;99.90
7216;DHT22;3649;48.798;9.798;2023-05-08T04:26:16;18.20;99.90
7216;DHT22;3649;48.798;9.798;2023-05-08T04:28:44;18.20;99.90
7216;DHT22;3649;48.798;9.798;2023-05-08T04:31:15;18.20;99.90
7216;DHT22;3649;48.798;9.798;2023-05-08T04:33:46;18.20;99.90
7216;DHT22;3649;48.798;9.798;2023-05-08T04:36:13;18.20;99.90
7216;DHT22;3649;48.798;9.798;2023-05-08T04:38:40;18.10;99.90
7216;DHT22;3649;48.798;9.798;2023-05-08T04:41:07;18.10;99.90
7216;DHT22;3649;48.798;9.798;2023-05-08T04:43:35;18.10;99.90
7216;DHT22;3649;48.798;9.798;2023-05-08T04:46:04;18.10;99.90
7216;DHT22;3649;48.798;9.798;2023-05-08T04:48:31;18.10;99.90
7216;DHT22;3649;48.798;9.798;2023-05-08T04:50:59;18.10;99.90
7216;DHT22;3649;48.798;9.798;2023-05-08T04:53:26;18.20;99.90
7216;DHT22;3649;48.798;9.798;2023-05-08T04:55:53;18.10;99.90
7216;DHT22;3649;48.798;9.798;2023-05-08T04:58:20;18.20;99.90
7216;DHT22;3649;48.798;9.798;2023-05-08T05:00:47;18.20;99.90
7216;DHT22;3649;48.798;9.798;2023-05-08T05:03:14;18.10;99.90
7216;DHT22;3649;48.798;9.798;2023-05-08T05:05:41;18.10;99.90
7216;DHT22;3649;48.798;9.798;2023-05-08T05:08:08;18.20;99.90
7216;DHT22;3649;48.798;9.798;2023-05-08T05:10:36;18.20;99.90
7216;DHT22;3649;48.798;9.798;2023-05-08T05:13:03;18.10;99.90
7216;DHT22;3649;48.798;9.798;2023-05-08T05:15:30;18.10;99.90
7216;DHT22;3649;48.798;9.798;2023-05-08T05:17:57;18.10;99.90
7216;DHT22;3649;48.798;9.798;2023-05-08T05:20:24;18.10;99.90
7216;DHT22;3649;48.798;9.798;2023-05-08T05:22:51;18.10;99.90
7216;DHT22;3649;48.798;9.798;2023-05-08T05:25:18;18.10;99.90
7216;DHT22;3649;48.798;9.798;2023-05-08T05:27:44;18.10;99.90
7216;DHT22;3649;48.798;9.798;2023-05-08T05:30:11;18.00;99.90
7216;DHT22;3649;48.798;9.798;2023-05-08T05:32:40;18.00;99.90
7216;DHT22;3649;48.798;9.798;2023-05-08T05:35:08;18.00;99.90
7216;DHT22;3649;48.798;9.798;2023-05-08T05:37:35;18.10;99.90
7216;DHT22;3649;48.798;9.798;2023-05-08T05:40:02;18.10;99.90
7216;DHT22;3649;48.798;9.798;2023-05-08T05:42:29;18.10;99.90
7216;DHT22;3649;48.798;9.798;2023-05-08T05:44:56;18.10;99.90
7216;DHT22;3649;48.798;9.798;2023-05-08T05:47:23;18.10;99.90
7216;DHT22;3649;48.798;9.798;2023-05-08T05:49:50;18.10;99.90
7216;DHT22;3649;48.798;9.798;2023-05-08T05:52:17;18.10;99.90
7216;DHT22;3649;48.798;9.798;2023-05-08T05:54:44;18.10;99.90
7216;DHT22;3649;48.798;9.798;2023-05-08T05:57:12;18.20;99.90
7216;DHT22;3649;48.798;9.798;2023-05-08T05:59:39;18.20;99.90
7216;DHT22;3649;48.798;9.798;2023-05-08T06:02:06;18.20;99.90
7216;DHT22;3649;48.798;9.798;2023-05-08T06:04:36;18.20;99.90
7216;DHT22;3649;48.798;9.798;2023-05-08T06:07:03;18.20;99.90
7216;DHT22;3649;48.798;9.798;2023-05-08T06:09:29;18.20;99.90
7216;DHT22;3649;48.798;9.798;2023-05-08T06:11:56;18.20;99.90
7216;DHT22;3649;48.798;9.798;2023-05-08T06:14:23;18.20;99.90
7216;DHT22;3649;48.798;9.798;2023-05-08T06:16:50;18.20;99.90
7216;DHT22;3649;48.798;9.798;2023-05-08T06:19:17;18.20;99.90
7216;DHT22;3649;48.798;9.798;2023-05-08T06:21:44;18.20;99.90
7216;DHT22;3649;48.798;9.798;2023-05-08T06:24:10;18.20;99.90
7216;DHT22;3649;48.798;9.798;2023-05-08T06:26:37;18.20;99.90
7216;DHT22;3649;48.798;9.798;2023-05-08T06:29:04;18.30;99.90
7216;DHT22;3649;48.798;9.798;2023-05-08T06:31:31;18.30;99.90
7216;DHT22;3649;48.798;9.798;2023-05-08T06:33:58;18.40;99.90
7216;DHT22;3649;48.798;9.798;2023-05-08T06:36:24;18.40;99.90
7216;DHT22;3649;48.798;9.798;2023-05-08T06:38:52;18.50;99.90
7216;DHT22;3649;48.798;9.798;2023-05-08T06:41:19;18.50;99.90
7216;DHT22;3649;48.798;9.798;2023-05-08T06:43:47;18.50;99.90
7216;DHT22;3649;48.798;9.798;2023-05-08T06:46:14;18.50;99.90
7216;DHT22;3649;48.798;9.798;2023-05-08T06:48:41;18.60;99.90
7216;DHT22;3649;48.798;9.798;2023-05-08T06:51:08;18.60;99.90
7216;DHT22;3649;48.798;9.798;2023-05-08T06:53:35;18.70;99.90
7216;DHT22;3649;48.798;9.798;2023-05-08T06:56:02;18.70;99.90
7216;DHT22;3649;48.798;9.798;2023-05-08T06:58:29;18.70;99.90
7216;DHT22;3649;48.798;9.798;2023-05-08T07:01:00;18.70;99.90
7216;DHT22;3649;48.798;9.798;2023-05-08T07:03:27;18.80;99.90
7216;DHT22;3649;48.798;9.798;2023-05-08T07:05:54;18.90;99.90
7216;DHT22;3649;48.798;9.798;2023-05-08T07:08:21;18.90;99.90
7216;DHT22;3649;48.798;9.798;2023-05-08T07:10:48;19.00;99.90
7216;DHT22;3649;48.798;9.798;2023-05-08T07:13:16;19.00;99.90
7216;DHT22;3649;48.798;9.798;2023-05-08T07:15:47;19.00;99.90
7216;DHT22;3649;48.798;9.798;2023-05-08T07:18:14;19.00;99.90
7216;DHT22;3649;48.798;9.798;2023-05-08T07:20:41;19.00;99.90
7216;DHT22;3649;48.798;9.798;2023-05-08T07:23:08;19.00;99.90
7216;DHT22;3649;48.798;9.798;2023-05-08T07:25:35;19.10;99.90
7216;DHT22;3649;48.798;9.798;2023-05-08T07:28:02;19.10;99.90
7216;DHT22;3649;48.798;9.798;2023-05-08T07:30:29;19.10;99.90
7216;DHT22;3649;48.798;9.798;2023-05-08T07:32:56;19.00;99.90
7216;DHT22;3649;48.798;9.798;2023-05-08T07:35:23;19.10;99.90
7216;DHT22;3649;48.798;9.798;2023-05-08T07:37:50;19.10;99.90
7216;DHT22;3649;48.798;9.798;2023-05-08T07:40:17;19.10;99.90
7216;DHT22;3649;48.798;9.798;2023-05-08T07:42:44;19.10;99.90
7216;DHT22;3649;48.798;9.798;2023-05-08T07:45:11;19.10;99.90
7216;DHT22;3649;48.798;9.798;2023-05-08T07:47:50;19.10;99.90
7216;DHT22;3649;48.798;9.798;2023-05-08T07:50:17;19.20;99.90
7216;DHT22;3649;48.798;9.798;2023-05-08T07:52:45;19.20;99.90
7216;DHT22;3649;48.798;9.798;2023-05-08T07:55:16;19.10;99.90
7216;DHT22;3649;48.798;9.798;2023-05-08T07:57:43;19.20;99.90
7216;DHT22;3649;48.798;9.798;2023-05-08T08:00:12;19.30;99.90
7216;DHT22;3649;48.798;9.798;2023-05-08T08:02:40;19.30;99.90
7216;DHT22;3649;48.798;9.798;2023-05-08T08:05:08;19.30;99.90
7216;DHT22;3649;48.798;9.798;2023-05-08T08:07:35;19.30;99.90
7216;DHT22;3649;48.798;9.798;2023-05-08T08:10:03;19.30;99.90
7216;DHT22;3649;48.798;9.798;2023-05-08T08:12:30;19.40;99.90
7216;DHT22;3649;48.798;9.798;2023-05-08T08:14:57;19.40;99.90
7216;DHT22;3649;48.798;9.798;2023-05-08T08:17:24;19.30;99.90
7216;DHT22;3649;48.798;9.798;2023-05-08T08:19:54;19.40;99.90
7216;DHT22;3649;48.798;9.798;2023-05-08T08:22:21;19.40;99.90
7216;DHT22;3649;48.798;9.798;2023-05-08T08:24:49;19.40;99.90
7216;DHT22;3649;48.798;9.798;2023-05-08T08:27:20;19.40;99.90
7216;DHT22;3649;48.798;9.798;2023-05-08T08:29:47;19.40;99.90
7216;DHT22;3649;48.798;9.798;2023-05-08T08:32:13;19.40;99.90
7216;DHT22;3649;48.798;9.798;2023-05-08T08:34:40;19.40;99.90
7216;DHT22;3649;48.798;9.798;2023-05-08T08:37:07;19.40;99.90
7216;DHT22;3649;48.798;9.798;2023-05-08T08:39:34;19.40;99.90
7216;DHT22;3649;48.798;9.798;2023-05-08T08:42:02;19.40;99.90
7216;DHT22;3649;48.798;9.798;2023-05-08T08:44:29;19.40;99.90
7216;DHT22;3649;48.798;9.798;2023-05-08T08:46:57;19.40;99.90
7216;DHT22;3649;48.798;9.798;2023-05-08T08:49:31;19.30;99.90
7216;DHT22;3649;48.798;9.798;2023-05-08T08:52:10;19.30;99.90
7216;DHT22;3649;48.798;9.798;2023-05-08T08:54:43;19.40;99.90
7216;DHT22;3649;48.798;9.798;2023-05-08T08:57:11;19.40;99.90
7216;DHT22;3649;48.798;9.798;2023-05-08T08:59:39;19.30;99.90
7216;DHT22;3649;48.798;9.798;2023-05-08T09:02:11;19.30;99.90
7216;DHT22;3649;48.798;9.798;2023-05-08T09:04:40;19.30;99.90
7216;DHT22;3649;48.798;9.798;2023-05-08T09:07:08;19.20;99.90
7216;DHT22;3649;48.798;9.798;2023-05-08T09:09:38;19.20;99.90
7216;DHT22;3649;48.798;9.798;2023-05-08T09:12:08;19.10;99.90
7216;DHT22;3649;48.798;9.798;2023-05-08T09:14:35;19.10;99.90
7216;DHT22;3649;48.798;9.798;2023-05-08T09:17:03;19.10;99.90
7216;DHT22;3649;48.798;9.798;2023-05-08T09:19:29;19.10;99.90
7216;DHT22;3649;48.798;9.798;2023-05-08T09:22:00;19.10;99.90
7216;DHT22;3649;48.798;9.798;2023-05-08T09:27:20;19.10;99.90
7216;DHT22;3649;48.798;9.798;2023-05-08T09:30:14;19.10;99.90
7216;DHT22;3649;48.798;9.798;2023-05-08T09:32:42;19.10;99.90
7216;DHT22;3649;48.798;9.798;2023-05-08T09:35:10;19.10;99.90
7216;DHT22;3649;48.798;9.798;2023-05-08T09:37:40;19.10;99.90
7216;DHT22;3649;48.798;9.798;2023-05-08T09:40:18;19.10;99.90
7216;DHT22;3649;48.798;9.798;2023-05-08T09:42:47;19.10;99.90
7216;DHT22;3649;48.798;9.798;2023-05-08T09:45:30;19.10;99.90
7216;DHT22;3649;48.798;9.798;2023-05-08T09:47:58;19.20;99.90
7216;DHT22;3649;48.798;9.798;2023-05-08T09:50:25;19.30;99.90
7216;DHT22;3649;48.798;9.798;2023-05-08T09:52:53;19.30;99.90
7216;DHT22;3649;48.798;9.798;2023-05-08T09:55:20;19.30;99.90
7216;DHT22;3649;48.798;9.798;2023-05-08T10:00:18;19.40;99.90
7216;DHT22;3649;48.798;9.798;2023-05-08T10:03:02;19.40;99.90
7216;DHT22;3649;48.798;9.798;2023-05-08T10:05:33;19.50;99.90
7216;DHT22;3649;48.798;9.798;2023-05-08T10:08:22;19.50;99.90
7216;DHT22;3649;48.798;9.798;2023-05-08T10:10:49;19.50;99.90
7216;DHT22;3649;48.798;9.798;2023-05-08T10:13:16;19.50;99.90
7216;DHT22;3649;48.798;9.798;2023-05-08T10:15:44;19.50;99.90
7216;DHT22;3649;48.798;9.798;2023-05-08T10:18:11;19.50;99.90
7216;DHT22;3649;48.798;9.798;2023-05-08T10:20:41;19.50;99.90
7216;DHT22;3649;48.798;9.798;2023-05-08T10:23:14;19.50;99.90
7216;DHT22;3649;48.798;9.798;2023-05-08T10:25:44;19.60;99.90
7216;DHT22;3649;48.798;9.798;2023-05-08T10:31:11;19.60;99.90
7216;DHT22;3649;48.798;9.798;2023-05-08T10:33:40;19.60;99.90
7216;DHT22;3649;48.798;9.798;2023-05-08T10:36:10;19.60;99.90
7216;DHT22;3649;48.798;9.798;2023-05-08T10:38:40;19.70;99.90
7216;DHT22;3649;48.798;9.798;2023-05-08T10:41:07;19.80;99.90
7216;DHT22;3649;48.798;9.798;2023-05-08T10:43:35;19.80;99.90
7216;DHT22;3649;48.798;9.798;2023-05-08T10:46:14;19.80;99.90
7216;DHT22;3649;48.798;9.798;2023-05-08T10:48:47;19.80;99.90
7216;DHT22;3649;48.798;9.798;2023-05-08T10:57:11;19.90;99.90
7216;DHT22;3649;48.798;9.798;2023-05-08T10:59:47;19.90;99.90
7216;DHT22;3649;48.798;9.798;2023-05-08T11:02:14;19.90;99.90
7216;DHT22;3649;48.798;9.798;2023-05-08T11:04:42;19.90;99.90
7216;DHT22;3649;48.798;9.798;2023-05-08T11:07:09;19.90;99.90
7216;DHT22;3649;48.798;9.798;2023-05-08T11:12:15;19.90;99.90
7216;DHT22;3649;48.798;9.798;2023-05-08T11:15:02;19.90;99.90
7216;DHT22;3649;48.798;9.798;2023-05-08T11:17:32;19.90;99.90
7216;DHT22;3649;48.798;9.798;2023-05-08T11:20:01;19.90;99.90
7216;DHT22;3649;48.798;9.798;2023-05-08T11:22:35;20.00;99.90
7216;DHT22;3649;48.798;9.798;2023-05-08T11:27:36;19.90;99.90
7216;DHT22;3649;48.798;9.798;2023-05-08T11:30:19;19.90;99.90
7216;DHT22;3649;48.798;9.798;2023-05-08T11:32:57;19.90;99.90
7216;DHT22;3649;48.798;9.798;2023-05-08T11:35:44;19.80;99.90
7216;DHT22;3649;48.798;9.798;2023-05-08T11:38:15;19.80;99.90
7216;DHT22;3649;48.798;9.798;2023-05-08T11:41:01;19.80;99.90
7216;DHT22;3649;48.798;9.798;2023-05-08T11:46:21;19.70;99.90
7216;DHT22;3649;48.798;9.798;2023-05-08T11:48:47;19.70;99.90
7216;DHT22;3649;48.798;9.798;2023-05-08T11:51:17;19.80;99.90
7216;DHT22;3649;48.798;9.798;2023-05-08T11:53:45;19.70;99.90
7216;DHT22;3649;48.798;9.798;2023-05-08T11:56:13;19.80;99.90
7216;DHT22;3649;48.798;9.798;2023-05-08T11:58:40;19.80;99.90
7216;DHT22;3649;48.798;9.798;2023-05-08T12:01:07;19.80;99.90
7216;DHT22;3649;48.798;9.798;2023-05-08T12:03:34;19.80;99.90
7216;DHT22;3649;48.798;9.798;2023-05-08T12:06:01;19.80;99.90
7216;DHT22;3649;48.798;9.798;2023-05-08T12:08:28;19.70;99.90
7216;DHT22;3649;48.798;9.798;2023-05-08T12:10:56;19.70;99.90
7216;DHT22;3649;48.798;9.798;2023-05-08T12:13:28;19.80;99.90
7216;DHT22;3649;48.798;9.798;2023-05-08T12:15:57;19.80;99.90
7216;DHT22;3649;48.798;9.798;2023-05-08T12:18:26;19.90;99.90
7216;DHT22;3649;48.798;9.798;2023-05-08T12:20:57;19.90;99.90
7216;DHT22;3649;48.798;9.798;2023-05-08T12:23:25;19.90;99.90
7216;DHT22;3649;48.798;9.798;2023-05-08T12:25:52;20.00;99.90
7216;DHT22;3649;48.798;9.798;2023-05-08T12:28:21;19.90;99.90
7216;DHT22;3649;48.798;9.798;2023-05-08T12:30:48;19.80;99.90
7216;DHT22;3649;48.798;9.798;2023-05-08T12:33:16;19.70;99.90
7216;DHT22;3649;48.798;9.798;2023-05-08T12:35:44;19.70;99.90
7216;DHT22;3649;48.798;9.798;2023-05-08T12:38:11;19.70;99.90
7216;DHT22;3649;48.798;9.798;2023-05-08T12:40:43;19.70;99.90
7216;DHT22;3649;48.798;9.798;2023-05-08T12:43:10;19.80;99.90
7216;DHT22;3649;48.798;9.798;2023-05-08T12:45:39;19.80;99.90
7216;DHT22;3649;48.798;9.798;2023-05-08T12:48:08;19.80;99.90
7216;DHT22;3649;48.798;9.798;2023-05-08T12:50:40;19.80;99.90
7216;DHT22;3649;48.798;9.798;2023-05-08T12:53:15;19.90;99.90
7216;DHT22;3649;48.798;9.798;2023-05-08T12:55:53;19.90;99.90
7216;DHT22;3649;48.798;9.798;2023-05-08T12:58:24;19.90;99.90
7216;DHT22;3649;48.798;9.798;2023-05-08T13:00:52;19.90;99.90
7216;DHT22;3649;48.798;9.798;2023-05-08T13:03:26;20.00;99.90
7216;DHT22;3649;48.798;9.798;2023-05-08T13:05:55;19.90;99.90
7216;DHT22;3649;48.798;9.798;2023-05-08T13:08:36;19.90;99.90
7216;DHT22;3649;48.798;9.798;2023-05-08T13:11:05;19.90;99.90
7216;DHT22;3649;48.798;9.798;2023-05-08T13:13:34;20.00;99.90
7216;DHT22;3649;48.798;9.798;2023-05-08T13:16:03;20.00;99.90
7216;DHT22;3649;48.798;9.798;2023-05-08T13:18:31;20.00;99.90
7216;DHT22;3649;48.798;9.798;2023-05-08T13:20:58;20.00;99.90
7216;DHT22;3649;48.798;9.798;2023-05-08T13:23:26;20.00;99.90
7216;DHT22;3649;48.798;9.798;2023-05-08T13:25:54;20.00;99.90
7216;DHT22;3649;48.798;9.798;2023-05-08T13:28:21;20.00;99.90
7216;DHT22;3649;48.798;9.798;2023-05-08T13:30:48;20.00;99.90
7216;DHT22;3649;48.798;9.798;2023-05-08T13:33:16;20.80;99.90
7216;DHT22;3649;48.798;9.798;2023-05-08T13:35:43;20.10;99.90
7216;DHT22;3649;48.798;9.798;2023-05-08T13:38:10;20.00;99.90
7216;DHT22;3649;48.798;9.798;2023-05-08T13:40:37;20.00;99.90
7216;DHT22;3649;48.798;9.798;2023-05-08T13:43:05;20.10;99.90
7216;DHT22;3649;48.798;9.798;2023-05-08T13:45:33;20.10;99.90
7216;DHT22;3649;48.798;9.798;2023-05-08T13:48:00;20.20;99.90
7216;DHT22;3649;48.798;9.798;2023-05-08T13:50:27;20.30;99.90
7216;DHT22;3649;48.798;9.798;2023-05-08T13:52:54;20.30;99.90
7216;DHT22;3649;48.798;9.798;2023-05-08T13:55:21;20.30;99.90
7216;DHT22;3649;48.798;9.798;2023-05-08T13:57:49;20.30;99.90
7216;DHT22;3649;48.798;9.798;2023-05-08T14:00:16;20.30;99.90
7216;DHT22;3649;48.798;9.798;2023-05-08T14:02:43;20.30;99.90
7216;DHT22;3649;48.798;9.798;2023-05-08T14:05:11;20.30;99.90
7216;DHT22;3649;48.798;9.798;2023-05-08T14:07:38;20.40;99.90
7216;DHT22;3649;48.798;9.798;2023-05-08T14:10:05;20.40;99.90
7216;DHT22;3649;48.798;9.798;2023-05-08T14:12:32;20.40;99.90
7216;DHT22;3649;48.798;9.798;2023-05-08T14:15:04;20.40;99.90
7216;DHT22;3649;48.798;9.798;2023-05-08T14:17:31;20.50;99.90
7216;DHT22;3649;48.798;9.798;2023-05-08T14:19:59;20.50;99.90
7216;DHT22;3649;48.798;9.798;2023-05-08T14:22:26;20.50;99.90
7216;DHT22;3649;48.798;9.798;2023-05-08T14:24:53;20.60;99.90
7216;DHT22;3649;48.798;9.798;2023-05-08T14:27:20;20.60;99.90
7216;DHT22;3649;48.798;9.798;2023-05-08T14:29:47;20.70;99.90
7216;DHT22;3649;48.798;9.798;2023-05-08T14:32:15;20.70;99.90
7216;DHT22;3649;48.798;9.798;2023-05-08T14:34:41;20.70;99.90
7216;DHT22;3649;48.798;9.798;2023-05-08T14:37:08;20.70;99.90
7216;DHT22;3649;48.798;9.798;2023-05-08T14:39:35;20.70;99.90
7216;DHT22;3649;48.798;9.798;2023-05-08T14:42:02;20.80;99.90
7216;DHT22;3649;48.798;9.798;2023-05-08T14:44:32;20.80;99.90
7216;DHT22;3649;48.798;9.798;2023-05-08T14:46:59;20.80;99.90
7216;DHT22;3649;48.798;9.798;2023-05-08T14:49:26;20.90;99.90
7216;DHT22;3649;48.798;9.798;2023-05-08T14:52:03;20.80;99.90
7216;DHT22;3649;48.798;9.798;2023-05-08T14:54:31;20.80;99.90
7216;DHT22;3649;48.798;9.798;2023-05-08T14:56:59;20.80;99.90
7216;DHT22;3649;48.798;9.798;2023-05-08T14:59:26;20.80;99.90
7216;DHT22;3649;48.798;9.798;2023-05-08T15:01:53;20.80;99.90
7216;DHT22;3649;48.798;9.798;2023-05-08T15:04:20;20.90;99.90
7216;DHT22;3649;48.798;9.798;2023-05-08T15:06:47;20.90;99.90
7216;DHT22;3649;48.798;9.798;2023-05-08T15:09:14;20.90;99.90
7216;DHT22;3649;48.798;9.798;2023-05-08T15:11:42;20.90;99.90
7216;DHT22;3649;48.798;9.798;2023-05-08T15:14:09;20.90;99.90
7216;DHT22;3649;48.798;9.798;2023-05-08T15:16:36;21.00;99.90
7216;DHT22;3649;48.798;9.798;2023-05-08T15:19:03;20.90;99.90
7216;DHT22;3649;48.798;9.798;2023-05-08T15:21:30;20.90;99.90
7216;DHT22;3649;48.798;9.798;2023-05-08T15:23:57;20.90;99.90
7216;DHT22;3649;48.798;9.798;2023-05-08T15:26:24;20.90;99.90
7216;DHT22;3649;48.798;9.798;2023-05-08T15:28:51;20.80;99.90
7216;DHT22;3649;48.798;9.798;2023-05-08T15:31:18;20.80;99.90
7216;DHT22;3649;48.798;9.798;2023-05-08T15:33:45;20.80;99.90
7216;DHT22;3649;48.798;9.798;2023-05-08T15:36:14;20.90;99.90
7216;DHT22;3649;48.798;9.798;2023-05-08T15:38:41;20.90;99.90
7216;DHT22;3649;48.798;9.798;2023-05-08T15:41:09;20.90;99.90
7216;DHT22;3649;48.798;9.798;2023-05-08T15:43:41;20.80;99.90
7216;DHT22;3649;48.798;9.798;2023-05-08T15:46:10;20.80;99.90
7216;DHT22;3649;48.798;9.798;2023-05-08T15:48:37;20.90;99.90
7216;DHT22;3649;48.798;9.798;2023-05-08T15:51:04;20.80;99.90
7216;DHT22;3649;48.798;9.798;2023-05-08T15:53:32;20.80;99.90
7216;DHT22;3649;48.798;9.798;2023-05-08T15:55:59;20.70;99.90
7216;DHT22;3649;48.798;9.798;2023-05-08T15:58:27;20.70;99.90
7216;DHT22;3649;48.798;9.798;2023-05-08T16:00:54;20.70;99.90
7216;DHT22;3649;48.798;9.798;2023-05-08T16:03:22;20.70;99.90
7216;DHT22;3649;48.798;9.798;2023-05-08T16:05:50;20.70;99.90
7216;DHT22;3649;48.798;9.798;2023-05-08T16:08:16;20.70;99.90
7216;DHT22;3649;48.798;9.798;2023-05-08T16:10:43;20.70;99.90
7216;DHT22;3649;48.798;9.798;2023-05-08T16:13:10;20.60;99.90
7216;DHT22;3649;48.798;9.798;2023-05-08T16:15:37;20.70;99.90
7216;DHT22;3649;48.798;9.798;2023-05-08T16:18:05;20.70;99.90
7216;DHT22;3649;48.798;9.798;2023-05-08T16:20:32;20.70;99.90
7216;DHT22;3649;48.798;9.798;2023-05-08T16:23:01;20.70;99.90
7216;DHT22;3649;48.798;9.798;2023-05-08T16:25:28;20.70;99.90
7216;DHT22;3649;48.798;9.798;2023-05-08T16:27:55;20.80;99.90
7216;DHT22;3649;48.798;9.798;2023-05-08T16:30:22;20.80;99.90
7216;DHT22;3649;48.798;9.798;2023-05-08T16:32:49;20.80;99.90
7216;DHT22;3649;48.798;9.798;2023-05-08T16:35:17;20.80;99.90
7216;DHT22;3649;48.798;9.798;2023-05-08T16:37:45;20.80;99.90
7216;DHT22;3649;48.798;9.798;2023-05-08T16:40:12;20.70;99.90
7216;DHT22;3649;48.798;9.798;2023-05-08T16:42:39;20.70;99.90
7216;DHT22;3649;48.798;9.798;2023-05-08T16:45:07;20.60;99.90
7216;DHT22;3649;48.798;9.798;2023-05-08T16:47:34;20.60;99.90
7216;DHT22;3649;48.798;9.798;2023-05-08T16:50:05;20.70;99.90
7216;DHT22;3649;48.798;9.798;2023-05-08T16:52:32;20.60;99.90
7216;DHT22;3649;48.798;9.798;2023-05-08T16:54:59;20.70;99.90
7216;DHT22;3649;48.798;9.798;2023-05-08T16:57:26;20.70;99.90
7216;DHT22;3649;48.798;9.798;2023-05-08T16:59:53;20.70;99.90
7216;DHT22;3649;48.798;9.798;2023-05-08T17:02:20;20.70;99.90
7216;DHT22;3649;48.798;9.798;2023-05-08T17:04:48;20.70;99.90